Time;durP1;ratioP1;P1;durP2;ratioP2;P2;SDS_P1;SDS_P2;PMS_P1;PMS_P2;Temp;Humidity;BMP_temperature;BMP_pressure;BME280_temperature;BME280_humidity;BME280_pressure;Samples;Min_cycle;Max_cycle;Signal;HPM_P1;HPM_P2
2023/10/14 00:01:04;;;;;;;22.10;14.77;;;410.30;2355.20;;;;;;5090018;28;20431;-58
2023/10/14 00:03:32;;;;;;;16.75;15.00;;;410.30;2355.20;;;;;;5089911;28;20012;-57
2023/10/14 00:06:10;;;;;;;24.33;14.98;;;410.20;2355.20;;;;;;5089800;28;20107;-58
2023/10/14 00:11:22;;;;;;;19.88;15.45;;;410.30;2355.20;;;;;;5083947;28;20031;-57
2023/10/14 00:13:49;;;;;;;24.48;14.18;;;410.20;2355.20;;;;;;5083690;28;20086;-58
2023/10/14 00:18:55;;;;;;;17.33;14.95;;;410.20;2355.20;;;;;;5090070;28;20391;-57
2023/10/14 00:21:23;;;;;;;21.48;14.50;;;410.20;2355.20;;;;;;5089699;28;20028;-57
2023/10/14 00:24:01;;;;;;;18.27;13.68;;;410.20;2355.20;;;;;;5089674;28;20454;-57
2023/10/14 00:26:27;;;;;;;17.38;14.02;;;410.10;2355.20;;;;;;5089997;28;20032;-57
2023/10/14 00:28:54;;;;;;;19.93;14.07;;;410.00;2355.20;;;;;;5048098;28;1181369;-56
2023/10/14 00:31:23;;;;;;;18.23;14.77;;;409.90;2355.20;;;;;;5090270;28;20032;-56
2023/10/14 00:33:52;;;;;;;18.45;14.05;;;409.90;2355.20;;;;;;5089270;28;20043;-56
2023/10/14 00:36:19;;;;;;;14.93;12.40;;;409.90;2355.20;;;;;;5089952;28;20500;-57
2023/10/14 00:38:45;;;;;;;19.45;12.65;;;409.70;2355.20;;;;;;5089627;28;20024;-56
2023/10/14 00:41:14;;;;;;;19.73;12.88;;;409.70;2355.20;;;;;;5090393;28;20032;-56
2023/10/14 00:43:39;;;;;;;17.27;13.50;;;409.70;2355.20;;;;;;5089962;28;20020;-56
2023/10/14 00:46:16;;;;;;;16.70;12.23;;;409.70;2355.20;;;;;;5089187;28;20024;-57
2023/10/14 00:48:46;;;;;;;16.10;12.23;;;409.70;2355.20;;;;;;5073587;28;20086;-56
2023/10/14 00:51:19;;;;;;;17.88;11.38;;;409.60;2355.20;;;;;;5083821;28;20032;-57
2023/10/14 00:54:27;;;;;;;14.70;12.00;;;409.70;2355.20;;;;;;5089926;28;20020;-56
2023/10/14 00:56:40;;;;;;;15.52;12.70;;;409.60;2355.20;;;;;;5085380;28;20039;-57
2023/10/14 00:59:08;;;;;;;18.42;11.93;;;409.60;2355.20;;;;;;5089486;28;20085;-57
2023/10/14 01:04:18;;;;;;;16.55;12.30;;;409.60;2355.20;;;;;;5089442;28;20047;-58
2023/10/14 01:07:13;;;;;;;16.98;11.98;;;384.90;2329.60;;;;;;5089990;28;20020;-57
2023/10/14 01:12:16;;;;;;;17.63;11.98;;;409.60;2355.20;;;;;;5089445;28;20024;-58
2023/10/14 01:14:52;;;;;;;17.00;12.65;;;384.90;2329.60;;;;;;5089511;28;20020;-57
2023/10/14 01:19:55;;;;;;;16.88;12.43;;;384.70;2329.60;;;;;;5084415;28;20111;-58
2023/10/14 01:22:21;;;;;;;20.60;13.32;;;384.80;2329.60;;;;;;5089330;28;20024;-57
2023/10/14 01:24:47;;;;;;;19.25;13.15;;;384.70;2329.60;;;;;;5089415;28;20020;-57
2023/10/14 01:27:13;;;;;;;16.88;12.98;;;384.60;2329.60;;;;;;5089418;28;20020;-57
2023/10/14 01:29:39;;;;;;;16.92;12.27;;;384.80;2329.60;;;;;;5088928;28;20051;-57
2023/10/14 01:35:24;;;;;;;15.63;11.98;;;384.70;2329.60;;;;;;5026721;28;20037;-56
2023/10/14 01:37:54;;;;;;;17.48;12.82;;;384.60;2329.60;;;;;;5026673;28;20164;-57
2023/10/14 01:43:04;;;;;;;22.38;13.50;;;384.40;2329.60;;;;;;5026583;28;20032;-56
2023/10/14 01:45:39;;;;;;;14.13;11.43;;;384.30;2329.60;;;;;;5026289;28;20487;-57
2023/10/14 01:50:46;;;;;;;17.33;12.52;;;384.30;2329.60;;;;;;5020266;28;20522;-58
2023/10/14 01:53:21;;;;;;;20.73;12.45;;;384.30;2329.60;;;;;;5026554;28;20034;-57
2023/10/14 01:55:47;;;;;;;15.23;11.30;;;384.30;2329.60;;;;;;5026505;28;20025;-57
2023/10/14 01:58:23;;;;;;;16.08;12.10;;;384.30;2329.60;;;;;;5026441;28;20096;-57
2023/10/14 02:00:58;;;;;;;15.73;12.23;;;384.30;2329.60;;;;;;5026096;28;20036;-57
2023/10/14 02:03:26;;;;;;;13.30;11.60;;;384.30;2329.60;;;;;;5026680;28;20028;-57
2023/10/14 02:05:52;;;;;;;16.17;12.60;;;384.30;2329.60;;;;;;5026451;28;20134;-56
2023/10/14 02:08:23;;;;;;;15.95;10.93;;;384.30;2329.60;;;;;;5026577;28;20424;-57
2023/10/14 02:10:50;;;;;;;14.68;10.57;;;384.30;2329.60;;;;;;5026102;28;20112;-57
2023/10/14 02:13:17;;;;;;;13.13;10.32;;;384.30;2329.60;;;;;;5074680;28;20074;-57
2023/10/14 02:15:46;;;;;;;15.20;11.25;;;384.20;2329.60;;;;;;5088596;28;20350;-56
2023/10/14 02:18:20;;;;;;;14.23;10.07;;;384.20;2329.60;;;;;;5088717;28;20109;-57
2023/10/14 02:20:56;;;;;;;17.75;11.25;;;384.20;2329.60;;;;;;5088850;28;20478;-58
2023/10/14 02:23:44;;;;;;;15.98;11.35;;;384.10;2329.60;;;;;;5081221;28;20122;-57
2023/10/14 02:26:31;;;;;;;15.10;11.52;;;384.00;2329.60;;;;;;5076114;28;20031;-58
2023/10/14 02:28:57;;;;;;;12.43;9.95;;;359.30;2329.60;;;;;;5070202;28;20016;-57
2023/10/14 02:33:54;;;;;;;16.30;10.98;;;384.00;2329.60;;;;;;5088662;28;20047;-57
2023/10/14 02:36:20;;;;;;;18.65;9.93;;;384.00;2329.60;;;;;;5088616;28;20063;-57
2023/10/14 02:38:53;;;;;;;14.10;10.60;;;384.10;2329.60;;;;;;5088519;28;20020;-57
2023/10/14 02:41:26;;;;;;;14.80;10.07;;;384.00;2329.60;;;;;;5088693;28;20600;-57
2023/10/14 02:46:41;;;;;;;17.60;9.05;;;384.00;2329.60;;;;;;5088602;28;20039;-57
2023/10/14 02:49:07;;;;;;;12.52;9.55;;;384.10;2329.60;;;;;;5088585;28;20066;-57
2023/10/14 02:51:41;;;;;;;16.00;9.73;;;384.10;2329.60;;;;;;5088323;28;20027;-57
2023/10/14 02:54:26;;;;;;;13.10;9.82;;;384.20;2329.60;;;;;;5088376;28;20609;-58
2023/10/14 02:59:23;;;;;;;17.45;10.57;;;359.30;2329.60;;;;;;5072232;28;20063;-57
2023/10/14 03:02:10;;;;;;;15.77;10.32;;;359.20;2329.60;;;;;;5078768;28;20386;-57
2023/10/14 03:04:49;;;;;;;17.38;10.25;;;359.10;2329.60;;;;;;5091830;28;20493;-57
2023/10/14 03:10:19;;;;;;;12.05;9.15;;;358.90;2329.60;;;;;;5009867;28;20041;-58
2023/10/14 03:12:49;;;;;;;;;;;359.00;2329.60;;;;;;5010318;28;20350;-57
2023/10/14 03:15:20;;;;;;;13.45;9.82;;;359.00;2329.60;;;;;;5009551;28;19957;-57
2023/10/14 03:25:41;;;;;;;16.52;10.95;;;358.90;2329.60;;;;;;5009341;28;20066;-58
2023/10/14 03:28:19;;;;;;;12.30;9.35;;;358.90;2329.60;;;;;;5009145;28;20049;-57
2023/10/14 03:30:48;;;;;;;16.95;10.18;;;359.00;2329.60;;;;;;5008646;28;20104;-58
2023/10/14 03:33:20;;;;;;;12.32;9.70;;;358.90;2329.60;;;;;;5008348;28;20041;-57
2023/10/14 03:39:16;;;;;;;12.10;9.68;;;358.80;2329.60;;;;;;4989736;28;20077;-57
2023/10/14 03:41:42;;;;;;;16.38;10.80;;;358.80;2329.60;;;;;;4989463;28;20403;-56
2023/10/14 03:44:12;;;;;;;17.90;11.20;;;358.90;2329.60;;;;;;4989098;28;20030;-58
2023/10/14 03:46:44;;;;;;;11.98;10.13;;;358.90;2329.60;;;;;;5019282;28;20130;-57
2023/10/14 03:49:25;;;;;;;22.02;11.43;;;358.90;2329.60;;;;;;5048409;28;20702;-57
2023/10/14 03:51:56;;;;;;;14.27;10.98;;;358.90;2329.60;;;;;;5048723;28;20041;-57
2023/10/14 03:54:26;;;;;;;14.80;9.70;;;359.00;2329.60;;;;;;5045278;28;20399;-57
2023/10/14 03:56:52;;;;;;;14.45;10.23;;;358.90;2329.60;;;;;;5041753;28;20077;-56
2023/10/14 03:59:22;;;;;;;14.05;9.70;;;358.90;2329.60;;;;;;5047626;28;20486;-57
2023/10/14 04:01:54;;;;;;;14.82;8.65;;;358.90;2329.60;;;;;;5048431;28;20037;-57
2023/10/14 04:04:21;;;;;;;16.15;9.73;;;359.00;2329.60;;;;;;5042356;28;20096;-57
2023/10/14 04:07:13;;;;;;;15.52;8.90;;;359.00;2329.60;;;;;;5048270;28;20450;-58
2023/10/14 04:09:44;;;;;;;13.15;8.80;;;359.00;2329.60;;;;;;5048004;28;20039;-58
2023/10/14 04:12:12;;;;;;;13.98;8.43;;;359.10;2329.60;;;;;;5048316;28;20095;-58
2023/10/14 04:14:40;;;;;;;12.68;9.23;;;359.10;2329.60;;;;;;5054466;28;20060;-57
2023/10/14 04:19:44;;;;;;;14.10;9.82;;;359.20;2329.60;;;;;;5090767;28;20082;-57
2023/10/14 04:22:30;;;;;;;;;;;359.20;2329.60;;;;;;5091024;28;20036;-57
2023/10/14 04:30:32;;;;;;;13.55;9.38;;;359.20;2329.60;;;;;;5089587;28;20128;-57
2023/10/14 04:35:31;;;;;;;15.63;11.00;;;359.10;2329.60;;;;;;5083721;28;20111;-57
2023/10/14 04:38:02;;;;;;;14.57;10.63;;;359.10;2329.60;;;;;;5085155;28;20405;-57
2023/10/14 04:45:52;;;;;;;;;;;358.90;2329.60;;;;;;5090443;28;20028;-57
2023/10/14 04:48:35;;;;;;;16.40;10.35;;;358.90;2329.60;;;;;;5089781;28;20325;-57
2023/10/14 04:51:09;;;;;;;14.68;10.55;;;358.80;2329.60;;;;;;5090639;28;20028;-57
2023/10/14 04:53:36;;;;;;;14.98;11.88;;;358.60;2329.60;;;;;;5089684;28;20031;-57
2023/10/14 04:56:08;;;;;;;13.77;11.63;;;358.60;2329.60;;;;;;5090006;28;20036;-57
2023/10/14 04:58:34;;;;;;;14.05;11.15;;;358.60;2329.60;;;;;;5089907;28;20023;-57
2023/10/14 05:01:01;;;;;;;16.33;10.43;;;358.70;2329.60;;;;;;5089429;28;20525;-57
2023/10/14 05:03:34;;;;;;;12.05;10.13;;;358.80;2329.60;;;;;;5089831;28;20111;-57
2023/10/14 05:08:48;;;;;;;21.10;11.50;;;358.90;2329.60;;;;;;5071115;28;20032;-57
2023/10/14 05:11:22;;;;;;;17.27;10.55;;;358.80;2329.60;;;;;;5088173;28;20093;-57
2023/10/14 05:16:58;;;;;;;16.20;10.35;;;359.20;2329.60;;;;;;5079435;28;20047;-56
2023/10/14 05:19:25;;;;;;;14.85;10.00;;;359.20;2329.60;;;;;;5088340;28;20024;-57
2023/10/14 05:21:57;;;;;;;15.60;11.20;;;359.30;2329.60;;;;;;5088415;28;20414;-57
2023/10/14 05:24:23;;;;;;;14.38;10.95;;;384.00;2329.60;;;;;;5089066;28;20111;-57
2023/10/14 05:26:58;;;;;;;13.00;11.15;;;384.00;2329.60;;;;;;5088921;28;20169;-56
2023/10/14 05:29:26;;;;;;;15.30;10.38;;;384.10;2329.60;;;;;;5089045;28;20110;-57
2023/10/14 05:31:52;;;;;;;13.07;11.02;;;384.20;2329.60;;;;;;5085975;28;20035;-57
2023/10/14 05:34:22;;;;;;;19.52;12.02;;;384.20;2329.60;;;;;;5078962;28;20032;-58
2023/10/14 05:36:55;;;;;;;15.88;11.25;;;384.00;2329.60;;;;;;5084890;28;20428;-57
2023/10/14 05:39:25;;;;;;;15.68;11.10;;;384.10;2329.60;;;;;;5070447;28;20051;-56
2023/10/14 05:41:58;;;;;;;12.95;10.13;;;384.10;2329.60;;;;;;5084528;28;20062;-57
2023/10/14 05:44:27;;;;;;;13.90;9.85;;;384.30;2329.60;;;;;;5085847;28;20028;-57
2023/10/14 05:46:56;;;;;;;11.68;9.63;;;384.30;2329.60;;;;;;5083539;28;20028;-57
2023/10/14 05:49:24;;;;;;;15.48;9.98;;;384.30;2329.60;;;;;;5084659;28;20404;-57
2023/10/14 05:51:53;;;;;;;12.75;9.57;;;384.40;2329.60;;;;;;5084923;28;20024;-56
2023/10/14 05:54:22;;;;;;;16.63;9.60;;;384.60;2329.60;;;;;;5079731;28;20052;-58
2023/10/14 05:56:51;;;;;;;10.85;8.95;;;384.60;2329.60;;;;;;5076828;28;20036;-56
2023/10/14 05:59:17;;;;;;;15.23;9.00;;;384.70;2329.60;;;;;;5074910;28;20032;-56
2023/10/14 06:01:46;;;;;;;12.75;8.15;;;384.60;2329.60;;;;;;5085506;28;20124;-56
2023/10/14 06:04:14;;;;;;;10.25;7.82;;;384.70;2329.60;;;;;;5080279;28;20482;-56
2023/10/14 06:06:40;;;;;;;12.88;8.00;;;409.60;2355.20;;;;;;5074079;28;20035;-57
2023/10/14 06:09:08;;;;;;;13.18;8.13;;;410.00;2355.20;;;;;;5086834;28;20042;-58
2023/10/14 06:11:33;;;;;;;14.80;8.93;;;410.30;2355.20;;;;;;5082477;28;20034;-57
2023/10/14 06:14:02;;;;;;;13.55;8.05;;;435.30;2355.20;;;;;;5084004;28;20024;-58
2023/10/14 06:16:29;;;;;;;10.77;7.38;;;435.90;2355.20;;;;;;5076016;28;20047;-57
2023/10/14 06:18:56;;;;;;;12.95;8.20;;;461.20;2380.80;;;;;;5083149;28;20126;-58
2023/10/14 06:21:27;;;;;;;12.48;8.48;;;486.50;2380.80;;;;;;5089253;28;20266;-58
2023/10/14 06:23:53;;;;;;;13.52;8.57;;;487.20;2380.80;;;;;;5089129;28;20032;-58
2023/10/14 06:26:19;;;;;;;12.95;9.23;;;538.40;2406.40;;;;;;5088914;28;20051;-58
2023/10/14 06:28:46;;;;;;;12.27;8.77;;;563.70;2432.00;;;;;;5088025;28;20056;-58
2023/10/14 06:31:12;;;;;;;13.70;9.48;;;589.00;2432.00;;;;;;5079903;28;20121;-58
2023/10/14 06:33:40;;;;;;;14.10;9.13;;;563.70;2432.00;;;;;;5089197;28;20028;-57
2023/10/14 06:36:10;;;;;;;16.65;11.15;;;563.20;2432.00;;;;;;5092717;28;20169;-58
2023/10/14 06:38:40;;;;;;;21.10;12.05;;;537.70;2406.40;;;;;;5092533;28;20024;-58
2023/10/14 06:41:11;;;;;;;20.98;11.77;;;512.60;2380.80;;;;;;5093153;28;20400;-58
2023/10/14 06:43:37;;;;;;;16.10;10.27;;;512.30;2380.80;;;;;;5088562;28;20077;-57
2023/10/14 06:46:06;;;;;;;19.38;10.30;;;;;;;;;;5084958;28;20020;-57
2023/10/14 06:48:33;;;;;;;18.85;10.38;;;;;;;;;;5092233;28;20035;-57
2023/10/14 06:50:59;;;;;;;13.40;9.95;;;;;;;;;;5091957;28;20032;-57
2023/10/14 06:53:29;;;;;;;13.57;10.07;;;;;;;;;;5092357;28;20066;-59
2023/10/14 06:55:55;;;;;;;13.57;10.02;;;;;;;;;;5092298;28;20895;-57
2023/10/14 06:58:27;;;;;;;10.27;8.63;;;;;;;;;;5091913;28;20028;-57
2023/10/14 07:00:53;;;;;;;14.80;8.52;;;;;;;;;;5090409;28;20036;-56
2023/10/14 07:03:19;;;;;;;11.77;8.75;;;;;;;;;;5086615;28;20073;-56
2023/10/14 07:05:48;;;;;;;13.13;9.23;;;;;;;;;;5077573;28;20025;-58
2023/10/14 07:08:15;;;;;;;11.98;9.20;;;564.10;2432.00;;;;;;5073990;28;20033;-57
2023/10/14 07:10:41;;;;;;;12.90;9.13;;;615.00;2355.20;;;;;;5086542;28;20027;-56
2023/10/14 07:13:08;;;;;;;15.75;8.65;;;615.20;2304.00;;;;;;5080656;28;20024;-58
2023/10/14 07:15:38;;;;;;;11.25;9.40;;;666.10;2176.00;;;;;;5084184;28;20089;-57
2023/10/14 07:18:04;;;;;;;13.27;10.40;;;691.60;2073.60;;;;;;5086171;28;20044;-59
2023/10/14 07:20:30;;;;;;;11.85;10.65;;;692.10;1971.20;;;;;;5091704;28;20024;-58
2023/10/14 07:23:01;;;;;;;15.10;10.73;;;716.90;1971.20;;;;;;5094344;28;20031;-58
2023/10/14 07:25:31;;;;;;;16.33;10.30;;;717.00;1920.00;;;;;;5091382;28;20099;-58
2023/10/14 07:27:59;;;;;;;13.70;12.30;;;717.40;1920.00;;;;;;5091338;28;20470;-59
2023/10/14 07:30:29;;;;;;;13.32;11.95;;;768.10;1817.60;;;;;;5091034;28;20052;-58
2023/10/14 07:32:55;;;;;;;13.90;11.75;;;768.10;1792.00;;;;;;5091451;28;20031;-58
2023/10/14 07:35:22;;;;;;;18.23;13.60;;;768.20;1792.00;;;;;;5064322;28;20036;-58
2023/10/14 07:37:50;;;;;;;15.20;11.68;;;;;;;;;;5066919;28;20082;-58
2023/10/14 07:40:26;;;;;;;22.75;13.73;;;768.90;1715.20;;;;;;5084367;28;20034;-58
2023/10/14 07:43:05;;;;;;;15.90;13.15;;;768.80;1715.20;;;;;;5090528;28;20040;-71
2023/10/14 07:45:46;;;;;;;21.75;17.40;;;819.30;1664.00;;;;;;5090571;28;20121;-71
2023/10/14 07:48:13;;;;;;;18.25;14.15;;;870.50;1561.60;;;;;;5079864;28;20060;-70
2023/10/14 07:50:44;;;;;;;16.80;13.02;;;845.30;1561.60;;;;;;5091155;28;20028;-71
2023/10/14 07:53:14;;;;;;;17.85;14.80;;;819.60;1612.80;;;;;;5090960;28;20474;-73
2023/10/14 07:55:39;;;;;;;19.23;15.05;;;819.30;1612.80;;;;;;5091300;28;20381;-70
2023/10/14 07:58:08;;;;;;;17.75;14.13;;;793.80;1664.00;;;;;;5090954;28;20032;-72
2023/10/14 08:00:48;;;;;;;16.13;13.35;;;819.60;1612.80;;;;;;5090913;28;20028;-70
2023/10/14 08:03:16;;;;;;;25.60;13.63;;;844.90;1587.20;;;;;;5079605;28;20036;-71
2023/10/14 08:05:44;;;;;;;18.00;14.98;;;845.40;1561.60;;;;;;5090724;28;20489;-67
2023/10/14 08:08:11;;;;;;;18.50;13.07;;;870.50;1510.40;;;;;;5091068;28;20029;-71
2023/10/14 08:10:42;;;;;;;17.38;13.02;;;870.40;1536.00;;;;;;5091047;28;20024;-71
2023/10/14 08:13:09;;;;;;;18.20;14.70;;;870.70;1510.40;;;;;;5090926;28;20032;-71
2023/10/14 08:15:36;;;;;;;19.58;14.60;;;871.30;1459.20;;;;;;5090372;28;20027;-70
2023/10/14 08:18:04;;;;;;;17.65;13.25;;;922.00;1433.60;;;;;;5090683;28;20115;-71
2023/10/14 08:20:34;;;;;;;19.10;14.75;;;921.90;1408.00;;;;;;5090580;28;20036;-71
2023/10/14 08:23:01;;;;;;;21.42;17.02;;;896.60;1433.60;;;;;;5085448;28;20035;-69
2023/10/14 08:25:28;;;;;;;22.17;18.23;;;921.80;1408.00;;;;;;5085139;28;20017;-71
2023/10/14 08:28:00;;;;;;;19.73;16.42;;;896.50;1408.00;;;;;;5090529;28;20023;-68
2023/10/14 08:30:26;;;;;;;18.63;16.55;;;896.30;1433.60;;;;;;5083215;28;20128;-69
2023/10/14 08:32:52;;;;;;;25.88;17.88;;;921.60;1408.00;;;;;;5079410;28;20111;-68
2023/10/14 08:35:28;;;;;;;25.45;14.80;;;921.70;1382.40;;;;;;5090537;28;20023;-69
2023/10/14 08:37:54;;;;;;;23.92;16.58;;;948.00;1331.20;;;;;;5079103;28;20047;-71
2023/10/14 08:40:25;;;;;;;20.52;15.68;;;973.20;1305.60;;;;;;5072010;28;20477;-70
2023/10/14 08:43:06;;;;;;;26.63;18.92;;;948.00;1331.20;;;;;;5084211;28;20054;-71
2023/10/14 08:45:36;;;;;;;31.83;19.38;;;972.80;1331.20;;;;;;5078210;28;20024;-73
2023/10/14 08:48:03;;;;;;;26.55;17.88;;;973.50;1305.60;;;;;;5080799;28;20040;-70
2023/10/14 08:50:31;;;;;;;32.40;18.27;;;972.80;1331.20;;;;;;5090152;28;20529;-72
2023/10/14 08:53:00;;;;;;;31.23;19.08;;;973.50;1305.60;;;;;;5089670;28;20023;-71
2023/10/14 08:55:28;;;;;;;20.70;17.42;;;948.10;1305.60;;;;;;5075555;28;20028;-71
2023/10/14 08:58:01;;;;;;;20.33;16.70;;;947.20;1356.80;;;;;;5089780;28;20038;-71
2023/10/14 09:00:29;;;;;;;30.08;21.95;;;896.60;1382.40;;;;;;5090718;28;20024;-71
2023/10/14 09:06:18;;;;;;;21.35;15.48;;;870.90;1459.20;;;;;;5094108;28;20436;-70
2023/10/14 09:08:48;;;;;;;25.38;14.32;;;794.30;1612.80;;;;;;5094312;28;20023;-72
2023/10/14 09:11:33;;;;;;;17.98;12.43;;;768.60;1638.40;;;;;;5094395;28;20070;-69
2023/10/14 09:14:10;;;;;;;16.13;12.90;;;743.10;1664.00;;;;;;5093455;28;20024;-70
2023/10/14 09:16:36;;;;;;;19.20;14.30;;;742.90;1689.60;;;;;;5093485;28;20043;-70
2023/10/14 09:19:05;;;;;;;20.77;13.43;;;717.60;1740.80;;;;;;5093444;28;20089;-69
2023/10/14 09:21:32;;;;;;;22.80;13.35;;;717.40;1766.40;;;;;;5093741;28;20032;-67
2023/10/14 09:24:07;;;;;;;20.90;13.43;;;717.20;1766.40;;;;;;5093641;28;20081;-68
2023/10/14 09:26:38;;;;;;;17.90;12.13;;;717.10;1766.40;;;;;;5093442;28;20016;-70
2023/10/14 09:29:04;;;;;;;21.95;12.82;;;692.10;1792.00;;;;;;5092918;28;20032;-70
2023/10/14 09:31:30;;;;;;;19.73;11.25;;;691.40;1868.80;;;;;;5074823;28;20051;-70
2023/10/14 09:33:55;;;;;;;21.50;12.00;;;691.60;1843.20;;;;;;5093369;28;20028;-70
2023/10/14 09:36:22;;;;;;;20.13;12.20;;;691.40;1868.80;;;;;;5093474;28;20105;-70
2023/10/14 09:38:49;;;;;;;20.13;11.57;;;691.40;1894.40;;;;;;5093034;28;20035;-71
2023/10/14 09:41:15;;;;;;;19.15;11.15;;;691.80;1868.80;;;;;;5093114;28;20092;-71
2023/10/14 09:43:51;;;;;;;21.45;12.07;;;691.90;1868.80;;;;;;5093016;28;20032;-70
2023/10/14 09:46:20;;;;;;;21.50;12.52;;;692.00;1843.20;;;;;;5093011;28;20035;-72
2023/10/14 09:48:46;;;;;;;19.55;11.25;;;691.60;1817.60;;;;;;5074866;28;20028;-71
2023/10/14 09:51:16;;;;;;;16.02;9.40;;;691.20;1817.60;;;;;;5093287;28;20023;-70
2023/10/14 09:53:48;;;;;;;12.13;7.18;;;666.30;1740.80;;;;;;5092918;28;20125;-71
2023/10/14 09:56:14;;;;;;;16.48;8.18;;;691.20;1715.20;;;;;;5092950;28;20126;-71
2023/10/14 09:58:46;;;;;;;13.77;8.80;;;666.40;1715.20;;;;;;5092959;28;20107;-72
2023/10/14 10:01:16;;;;;;;15.27;9.35;;;691.20;1766.40;;;;;;5092896;28;20055;-71
2023/10/14 10:03:50;;;;;;;14.63;9.82;;;691.40;1740.80;;;;;;5093293;28;20035;-71
2023/10/14 10:06:24;;;;;;;11.43;8.40;;;691.30;1766.40;;;;;;5091660;28;20059;-71
2023/10/14 10:09:19;;;;;;;11.02;8.88;;;691.20;1766.40;;;;;;5092652;28;20021;-72
2023/10/14 10:11:46;;;;;;;10.93;8.45;;;691.40;1740.80;;;;;;5093218;28;20024;-72
2023/10/14 10:14:16;;;;;;;15.13;9.43;;;691.20;1740.80;;;;;;5092942;28;20028;-69
2023/10/14 10:16:42;;;;;;;13.10;9.07;;;666.30;1740.80;;;;;;5092880;28;20040;-71
2023/10/14 10:19:10;;;;;;;12.82;8.15;;;666.10;1766.40;;;;;;5093032;28;20024;-70
2023/10/14 10:21:43;;;;;;;11.98;7.90;;;666.20;1740.80;;;;;;5092633;28;20031;-71
2023/10/14 10:24:23;;;;;;;13.57;8.60;;;666.30;1715.20;;;;;;5092864;28;20073;-71
2023/10/14 10:26:58;;;;;;;14.27;8.27;;;666.50;1715.20;;;;;;5092542;28;20025;-71
2023/10/14 10:29:24;;;;;;;13.27;7.75;;;666.40;1715.20;;;;;;5092546;28;20055;-71
2023/10/14 10:32:07;;;;;;;13.13;6.72;;;666.20;1689.60;;;;;;5092341;28;20028;-71
2023/10/14 10:34:33;;;;;;;10.27;6.88;;;666.30;1715.20;;;;;;5092508;28;20038;-71
2023/10/14 10:37:04;;;;;;;11.35;7.88;;;666.40;1664.00;;;;;;5092377;28;20165;-71
2023/10/14 10:39:31;;;;;;;9.55;6.53;;;666.50;1689.60;;;;;;5092603;28;20107;-71
2023/10/14 10:41:57;;;;;;;12.65;7.40;;;691.20;1664.00;;;;;;5092672;28;20025;-70
2023/10/14 10:44:29;;;;;;;13.95;7.68;;;691.30;1689.60;;;;;;5092678;28;20350;-71
2023/10/14 10:46:56;;;;;;;9.40;6.90;;;691.20;1689.60;;;;;;5092376;28;20369;-71
2023/10/14 10:49:48;;;;;;;14.82;8.02;;;666.50;1689.60;;;;;;5092628;28;20024;-72
2023/10/14 10:52:15;;;;;;;12.02;6.93;;;666.50;1664.00;;;;;;5084108;28;20081;-71
2023/10/14 10:54:45;;;;;;;12.02;6.43;;;691.20;1664.00;;;;;;5092570;28;20052;-71
2023/10/14 10:57:12;;;;;;;10.18;6.82;;;691.20;1638.40;;;;;;5092562;28;20068;-71
2023/10/14 10:59:38;;;;;;;8.45;7.15;;;666.50;1638.40;;;;;;5092670;28;20358;-71
2023/10/14 11:02:11;;;;;;;11.07;7.10;;;666.30;1664.00;;;;;;5092274;28;20059;-70
2023/10/14 11:04:41;;;;;;;;;;;691.20;1638.40;;;;;;5093008;28;20020;-71
2023/10/14 11:07:11;;;;;;;15.20;7.43;;;691.20;1638.40;;;;;;5092517;28;20316;-72
2023/10/14 11:09:39;;;;;;;12.82;7.15;;;691.30;1664.00;;;;;;5092429;28;20024;-72
2023/10/14 11:12:09;;;;;;;9.38;6.47;;;691.40;1638.40;;;;;;5092197;28;20028;-70
2023/10/14 11:14:35;;;;;;;10.35;6.40;;;691.40;1638.40;;;;;;5092086;28;20526;-70
2023/10/14 11:17:01;;;;;;;14.32;7.53;;;691.30;1638.40;;;;;;5092675;28;20028;-70
2023/10/14 11:19:32;;;;;;;8.23;5.10;;;691.40;1638.40;;;;;;5096056;28;20028;-70
2023/10/14 11:21:59;;;;;;;11.07;5.75;;;691.40;1561.60;;;;;;5095476;28;20016;-68
2023/10/14 11:24:25;;;;;;;7.43;4.82;;;691.60;1561.60;;;;;;5096143;28;20107;-71
2023/10/14 11:26:53;;;;;;;8.63;5.38;;;691.70;1510.40;;;;;;5096208;28;20143;-70
2023/10/14 11:29:23;;;;;;;8.75;5.63;;;691.60;1510.40;;;;;;5095317;28;20457;-70
2023/10/14 11:31:53;;;;;;;11.80;6.22;;;691.70;1510.40;;;;;;5095787;28;20028;-68
2023/10/14 11:34:20;;;;;;;10.35;5.35;;;691.70;1536.00;;;;;;5095652;28;20126;-68
2023/10/14 11:36:48;;;;;;;8.93;4.97;;;691.70;1536.00;;;;;;5095599;28;20113;-70
2023/10/14 11:39:18;;;;;;;12.45;5.30;;;691.70;1510.40;;;;;;5094249;28;20031;-70
2023/10/14 11:41:50;;;;;;;8.40;4.80;;;691.70;1536.00;;;;;;5087414;28;20110;-70
2023/10/14 11:44:19;;;;;;;7.20;5.40;;;691.80;1510.40;;;;;;5090901;28;20052;-70
2023/10/14 11:46:46;;;;;;;12.68;5.97;;;691.80;1510.40;;;;;;5091159;28;20020;-69
2023/10/14 11:49:13;;;;;;;6.40;4.75;;;691.80;1484.80;;;;;;5091189;28;20032;-70
2023/10/14 11:51:43;;;;;;;8.00;4.85;;;691.70;1510.40;;;;;;5091212;28;20035;-70
2023/10/14 11:54:12;;;;;;;7.22;5.20;;;691.70;1510.40;;;;;;5089522;28;20115;-68
2023/10/14 11:56:42;;;;;;;10.43;5.15;;;691.70;1510.40;;;;;;5079605;28;20028;-70
2023/10/14 11:59:08;;;;;;;10.13;5.57;;;691.50;1510.40;;;;;;5090654;28;20077;-70
2023/10/14 12:01:34;;;;;;;7.43;4.93;;;691.80;1510.40;;;;;;5090979;28;20028;-70
2023/10/14 12:04:05;;;;;;;9.18;5.65;;;691.80;1484.80;;;;;;5089524;28;20212;-70
2023/10/14 12:06:34;;;;;;;10.00;5.45;;;691.80;1510.40;;;;;;5081027;28;20441;-71
2023/10/14 12:09:05;;;;;;;9.50;4.55;;;691.80;1536.00;;;;;;5078686;28;20016;-68
2023/10/14 12:11:41;;;;;;;11.32;5.05;;;691.80;1484.80;;;;;;5082202;28;20017;-70
2023/10/14 12:14:11;;;;;;;7.57;4.65;;;691.80;1510.40;;;;;;5090253;28;20024;-71
2023/10/14 12:16:40;;;;;;;7.88;4.93;;;691.80;1536.00;;;;;;5081011;28;20075;-70
2023/10/14 12:19:05;;;;;;;11.60;5.60;;;691.80;1484.80;;;;;;5088220;28;20517;-69
2023/10/14 12:21:31;;;;;;;16.98;6.07;;;691.90;1536.00;;;;;;5085311;28;20106;-68
2023/10/14 12:24:02;;;;;;;6.65;4.93;;;691.80;1484.80;;;;;;5090375;28;20081;-68
2023/10/14 12:26:30;;;;;;;11.07;5.00;;;691.90;1536.00;;;;;;5088775;28;20358;-69
2023/10/14 12:28:56;;;;;;;7.32;5.38;;;691.80;1510.40;;;;;;5076519;28;20036;-69
2023/10/14 12:31:24;;;;;;;8.88;5.32;;;691.70;1510.40;;;;;;5089213;28;20033;-69
2023/10/14 12:33:50;;;;;;;6.20;5.15;;;691.70;1510.40;;;;;;5087775;28;20362;-70
2023/10/14 12:36:17;;;;;;;11.50;5.70;;;691.80;1484.80;;;;;;5087568;28;20030;-69
2023/10/14 12:38:43;;;;;;;9.00;5.20;;;691.80;1510.40;;;;;;5090381;28;20023;-70
2023/10/14 12:41:21;;;;;;;13.25;5.13;;;691.80;1484.80;;;;;;5088599;28;20050;-70
2023/10/14 12:43:51;;;;;;;7.90;5.20;;;691.70;1484.80;;;;;;5089865;28;20020;-69
2023/10/14 12:48:43;;;;;;;8.95;5.22;;;691.70;1510.40;;;;;;5075323;28;20445;-70
2023/10/14 12:51:17;;;;;;;11.90;5.85;;;691.70;1510.40;;;;;;5079305;28;20024;-69
2023/10/14 12:53:47;;;;;;;10.15;5.38;;;691.60;1510.40;;;;;;5092364;28;20047;-70
2023/10/14 12:56:14;;;;;;;8.93;5.20;;;691.60;1510.40;;;;;;5081985;28;20033;-70
2023/10/14 12:58:43;;;;;;;13.27;5.75;;;691.70;1510.40;;;;;;5088785;28;20020;-71
2023/10/14 13:01:16;;;;;;;11.10;5.57;;;691.70;1510.40;;;;;;5088627;28;20500;-71
2023/10/14 13:03:52;;;;;;;7.13;5.32;;;691.70;1510.40;;;;;;5090149;28;20055;-70
2023/10/14 13:06:26;;;;;;;7.93;4.72;;;691.70;1484.80;;;;;;5089860;28;20027;-70
2023/10/14 13:09:00;;;;;;;8.73;5.70;;;691.70;1510.40;;;;;;5090068;28;20024;-70
2023/10/14 13:11:30;;;;;;;10.13;5.68;;;691.70;1510.40;;;;;;5089521;28;20024;-70
2023/10/14 13:13:59;;;;;;;8.48;5.25;;;691.60;1536.00;;;;;;5089655;28;20052;-68
2023/10/14 13:16:26;;;;;;;10.52;5.53;;;691.60;1536.00;;;;;;5080324;28;20453;-70
2023/10/14 13:18:56;;;;;;;8.88;5.13;;;691.60;1510.40;;;;;;5079801;28;20024;-71
2023/10/14 13:21:28;;;;;;;9.07;5.07;;;691.70;1510.40;;;;;;5085760;28;20090;-71
2023/10/14 13:23:55;;;;;;;12.57;6.33;;;691.70;1510.40;;;;;;5087340;28;20020;-72
2023/10/14 13:26:21;;;;;;;6.70;4.80;;;691.70;1510.40;;;;;;5085997;28;20416;-71
2023/10/14 13:28:50;;;;;;;12.48;6.32;;;691.70;1510.40;;;;;;5089460;28;20020;-69
2023/10/14 13:31:16;;;;;;;8.48;4.97;;;691.60;1536.00;;;;;;5070896;28;20040;-69
2023/10/14 13:33:46;;;;;;;10.45;5.82;;;691.60;1510.40;;;;;;5089513;28;20024;-70